createdAt,value
2022-11-04T00:01:33.797Z,98819.63
2022-11-04T00:04:01.245Z,98851.91
2022-11-04T00:06:30.153Z,98841.28
2022-11-04T00:08:58.693Z,98832.03
2022-11-04T00:11:43.961Z,98872.41
2022-11-04T00:14:11.671Z,98818.78
2022-11-04T00:16:56.960Z,98886.63
2022-11-04T00:19:24.666Z,98833.81
2022-11-04T00:22:25.431Z,98853.13
2022-11-04T00:25:10.687Z,98903.41
2022-11-04T00:27:55.798Z,98906.88
2022-11-04T00:30:23.224Z,98908.72
2022-11-04T00:33:08.208Z,98921.00
2022-11-04T00:35:35.708Z,98910.50
2022-11-04T00:38:04.585Z,98902.56
2022-11-04T00:40:32.047Z,98894.72
2022-11-04T00:42:59.501Z,98887.50
2022-11-04T00:45:26.960Z,98893.03
2022-11-04T00:47:54.417Z,98900.75
2022-11-04T00:50:21.860Z,98894.72
2022-11-04T00:52:49.345Z,98900.88
2022-11-04T00:55:18.129Z,98913.16
2022-11-04T00:57:45.548Z,98921.25
2022-11-04T01:00:14.606Z,98933.66
2022-11-04T01:02:42.131Z,98919.56
2022-11-04T01:05:10.472Z,98903.41
2022-11-04T01:07:43.411Z,98893.03
2022-11-04T01:10:11.351Z,98889.41
2022-11-04T01:12:40.103Z,98889.41
2022-11-04T01:15:08.171Z,98905.56
2022-11-04T01:17:35.604Z,98901.13
2022-11-04T01:20:03.594Z,98910.88
2022-11-04T01:22:31.023Z,98924.16
2022-11-04T01:24:58.447Z,98913.53
2022-11-04T01:27:25.876Z,98931.97
2022-11-04T01:29:54.639Z,98821.88
2022-11-04T01:32:22.149Z,98937.41
2022-11-04T01:34:49.606Z,98947.16
2022-11-04T01:37:17.085Z,98922.56
2022-11-04T01:39:44.980Z,98930.28
2022-11-04T01:42:14.585Z,98941.84
2022-11-04T01:44:54.334Z,98860.44
2022-11-04T01:47:24.318Z,98948.25
2022-11-04T01:49:53.337Z,98939.22
2022-11-04T01:52:23.658Z,98944.88
2022-11-04T01:54:51.510Z,98891.66
2022-11-04T01:57:20.867Z,98932.34
2022-11-04T01:59:48.313Z,98944.03
2022-11-04T02:02:17.204Z,98938.63
2022-11-04T02:04:44.739Z,98948.88
2022-11-04T02:07:12.246Z,98949.81
2022-11-04T02:09:40.310Z,98978.88
2022-11-04T02:12:25.728Z,98986.84
2022-11-04T02:14:53.244Z,98983.47
2022-11-04T02:17:36.536Z,98969.09
2022-11-04T02:20:18.337Z,98960.41
2022-11-04T02:22:58.906Z,98988.44
2022-11-04T02:25:36.714Z,98999.88
2022-11-04T02:28:26.905Z,98972.97
2022-11-04T02:30:55.923Z,98999.41
2022-11-04T02:33:23.846Z,98999.41
2022-11-04T02:35:55.580Z,98993.00
2022-11-04T02:38:34.996Z,98980.59
2022-11-04T02:41:07.063Z,98982.16
2022-11-04T02:43:36.666Z,98992.03
2022-11-04T02:46:06.251Z,98982.63
2022-11-04T02:48:36.966Z,99000.97
2022-11-04T02:51:05.976Z,98990.22
2022-11-04T02:53:35.361Z,98993.63
2022-11-04T02:56:03.026Z,98989.72
2022-11-04T02:58:32.788Z,99009.66
2022-11-04T03:01:00.274Z,98963.06
2022-11-04T03:03:29.899Z,99016.75
2022-11-04T03:05:57.632Z,99016.75
2022-11-04T03:08:27.746Z,99018.56
2022-11-04T03:10:55.823Z,99032.19
2022-11-04T03:13:25.023Z,98957.84
2022-11-04T03:15:54.049Z,99030.38
2022-11-04T03:18:24.857Z,99004.16
2022-11-04T03:20:53.627Z,98980.59
2022-11-04T03:23:21.180Z,99067.28
2022-11-04T03:25:49.169Z,99043.38
2022-11-04T03:28:23.595Z,99074.63
2022-11-04T03:30:52.678Z,99065.00
2022-11-04T03:33:21.724Z,99068.50
2022-11-04T03:35:49.228Z,99073.81
2022-11-04T03:38:18.059Z,99028.72
2022-11-04T03:40:45.527Z,99007.34
2022-11-04T03:43:15.265Z,99084.41
2022-11-04T03:45:42.797Z,99059.75
2022-11-04T03:48:10.319Z,99064.81
2022-11-04T03:50:41.369Z,99096.81
2022-11-04T03:53:09.247Z,99097.16
2022-11-04T03:55:42.149Z,99098.38
2022-11-04T03:58:11.399Z,99108.97
2022-11-04T04:00:41.106Z,99111.41
2022-11-04T04:03:09.728Z,99110.78
2022-11-04T04:05:39.710Z,99109.22
2022-11-04T04:08:13.344Z,99114.28
2022-11-04T04:10:43.434Z,99100.75
2022-11-04T04:13:13.384Z,99131.25
2022-11-04T04:15:44.109Z,99133.19
2022-11-04T04:18:13.633Z,99127.78
2022-11-04T04:20:41.082Z,99056.94
2022-11-04T04:23:30.417Z,99136.56
2022-11-04T04:26:18.707Z,99138.38
2022-11-04T04:28:46.157Z,99136.78
2022-11-04T04:31:13.671Z,99142.94
2022-11-04T04:33:41.199Z,99148.25
2022-11-04T04:36:08.766Z,99157.91
2022-11-04T04:38:53.753Z,99088.78
2022-11-04T04:41:41.468Z,99154.19
2022-11-04T04:44:30.102Z,99158.75
2022-11-04T04:46:57.593Z,99162.25
2022-11-04T04:49:34.845Z,99164.16
2022-11-04T04:52:02.431Z,99139.00
2022-11-04T04:54:29.928Z,99164.16
2022-11-04T04:56:58.734Z,99163.19
2022-11-04T04:59:26.225Z,99162.50
2022-11-04T05:01:53.801Z,99158.97
2022-11-04T05:04:21.429Z,99185.38
2022-11-04T05:06:48.974Z,99173.66
2022-11-04T05:09:16.505Z,99174.03
2022-11-04T05:11:43.980Z,99172.34
2022-11-04T05:14:12.750Z,99102.00
2022-11-04T05:16:41.046Z,99146.09
2022-11-04T05:19:08.733Z,99164.75
2022-11-04T05:21:36.188Z,99189.00
2022-11-04T05:24:03.646Z,99183.06
2022-11-04T05:26:31.165Z,99177.88
2022-11-04T05:28:58.799Z,99182.34
2022-11-04T05:31:28.479Z,99071.25
2022-11-04T05:33:55.969Z,99180.75
2022-11-04T05:36:23.507Z,99145.09
2022-11-04T05:38:51.371Z,99186.81
2022-11-04T05:41:25.787Z,99200.06
2022-11-04T05:43:53.844Z,99215.13
2022-11-04T05:46:21.263Z,99171.63
2022-11-04T05:48:50.075Z,99204.28
2022-11-04T05:51:18.374Z,99195.94
2022-11-04T05:53:45.868Z,99207.16
2022-11-04T05:56:13.379Z,99180.41
2022-11-04T05:58:40.845Z,99206.19
2022-11-04T06:01:15.494Z,99119.03
2022-11-04T06:03:43.479Z,99201.13
2022-11-04T06:06:12.233Z,99226.81
2022-11-04T06:08:44.907Z,99246.09
2022-11-04T06:11:12.696Z,99265.75
2022-11-04T06:13:40.207Z,99211.84
2022-11-04T06:16:08.059Z,99263.09
2022-11-04T06:18:35.543Z,99263.31
2022-11-04T06:21:24.995Z,99265.84
2022-11-04T06:23:52.916Z,99276.69
2022-11-04T06:26:25.147Z,99283.66
2022-11-04T06:28:54.536Z,99294.16
2022-11-04T06:31:22.096Z,99296.09
2022-11-04T06:33:49.591Z,99297.03
2022-11-04T06:36:17.254Z,99308.28
2022-11-04T06:38:46.103Z,99302.34
2022-11-04T06:41:14.705Z,99300.75
2022-11-04T06:43:42.188Z,99291.34
2022-11-04T06:46:27.274Z,99237.09
2022-11-04T06:48:54.793Z,99273.34
2022-11-04T06:51:22.254Z,99302.06
2022-11-04T06:53:51.123Z,99300.00
2022-11-04T06:56:18.630Z,99280.94
2022-11-04T06:58:48.917Z,99305.63
2022-11-04T07:01:21.540Z,99282.31
2022-11-04T07:03:49.934Z,99306.94
2022-11-04T07:06:17.615Z,99295.34
2022-11-04T07:08:45.084Z,99264.94
2022-11-04T07:11:13.928Z,99302.66
2022-11-04T07:13:41.715Z,99299.34
2022-11-04T07:16:09.798Z,99302.13
2022-11-04T07:18:37.259Z,99301.28
2022-11-04T07:21:09.772Z,99301.50
2022-11-04T07:23:37.719Z,99306.19
2022-11-04T07:26:06.577Z,99276.94
2022-11-04T07:28:35.416Z,99262.09
2022-11-04T07:31:03.168Z,99280.97
2022-11-04T07:33:30.632Z,99314.88
2022-11-04T07:35:58.591Z,99320.63
2022-11-04T07:38:26.239Z,99331.00
2022-11-04T07:40:53.992Z,99330.91
2022-11-04T07:43:21.474Z,99338.44
2022-11-04T07:45:59.998Z,99332.03
2022-11-04T07:48:27.582Z,99335.88
2022-11-04T07:50:56.743Z,99334.81
2022-11-04T07:53:24.212Z,99313.50
2022-11-04T07:55:51.722Z,99338.81
2022-11-04T07:58:19.387Z,99338.22
2022-11-04T08:00:46.879Z,99314.88
2022-11-04T08:03:15.775Z,99344.34
2022-11-04T08:05:43.578Z,99347.63
2022-11-04T08:08:11.122Z,99359.94
2022-11-04T08:10:38.609Z,99355.25
2022-11-04T08:13:06.325Z,99355.91
2022-11-04T08:15:36.544Z,99365.56
2022-11-04T08:18:04.646Z,99360.47
2022-11-04T08:20:33.412Z,99364.19
2022-11-04T08:23:00.867Z,99363.00
2022-11-04T08:25:28.409Z,99363.66
2022-11-04T08:28:00.654Z,99370.84
2022-11-04T08:30:28.645Z,99376.91
2022-11-04T08:32:56.077Z,99373.00
2022-11-04T08:35:23.557Z,99334.19
2022-11-04T08:37:52.315Z,99318.72
2022-11-04T08:40:19.808Z,99364.50
2022-11-04T08:42:47.464Z,99358.16
2022-11-04T08:45:14.915Z,99359.63
2022-11-04T08:47:42.366Z,99366.53
2022-11-04T08:50:11.386Z,99362.50
2022-11-04T08:52:38.848Z,99374.25
2022-11-04T08:55:09.831Z,99380.44
2022-11-04T08:57:37.326Z,99375.78
2022-11-04T09:00:06.061Z,99388.91
2022-11-04T09:02:33.492Z,99385.94
2022-11-04T09:05:01.820Z,99384.66
2022-11-04T09:07:29.271Z,99382.75
2022-11-04T09:09:56.709Z,99404.38
2022-11-04T09:12:25.476Z,99395.91
2022-11-04T09:14:53.166Z,99342.38
2022-11-04T09:17:20.621Z,99404.91
2022-11-04T09:19:48.057Z,99402.47
2022-11-04T09:22:15.503Z,99396.31
2022-11-04T09:24:42.966Z,99369.19
2022-11-04T09:27:10.433Z,99401.72
2022-11-04T09:29:39.210Z,99391.00
2022-11-04T09:32:06.973Z,99394.50
2022-11-04T09:34:34.623Z,99400.78
2022-11-04T09:37:02.100Z,99407.56
2022-11-04T09:39:29.559Z,99406.81
2022-11-04T09:42:06.328Z,99404.25
2022-11-04T09:44:59.661Z,99406.91
2022-11-04T09:47:26.665Z,99401.72
2022-11-04T09:49:57.474Z,99349.91
2022-11-04T09:52:26.364Z,99401.81
2022-11-04T09:54:55.814Z,99384.00
2022-11-04T09:57:24.239Z,99393.03
2022-11-04T09:59:51.701Z,99392.06
2022-11-04T10:02:31.570Z,99393.75
2022-11-04T10:05:04.669Z,99396.41
2022-11-04T10:07:43.800Z,99399.06
2022-11-04T10:10:13.966Z,99407.88
2022-11-04T10:12:43.871Z,99404.25
2022-11-04T10:15:32.495Z,99412.34
2022-11-04T10:18:07.604Z,99417.31
2022-11-04T10:20:48.716Z,99417.09
2022-11-04T10:23:22.142Z,99410.00
2022-11-04T10:25:50.436Z,99426.88
2022-11-04T10:28:19.286Z,99425.91
2022-11-04T10:30:47.932Z,99425.69
2022-11-04T10:33:23.527Z,99427.59
2022-11-04T10:35:51.853Z,99431.75
2022-11-04T10:38:20.706Z,99432.69
2022-11-04T10:40:49.686Z,99453.81
2022-11-04T10:43:19.004Z,99442.47
2022-11-04T10:45:51.370Z,99401.31
2022-11-04T10:48:22.303Z,99452.03
2022-11-04T10:50:51.946Z,99387.19
2022-11-04T10:53:19.892Z,99434.19
2022-11-04T10:55:50.573Z,99430.69
2022-11-04T10:58:21.672Z,99402.47
2022-11-04T11:00:50.309Z,99388.59
2022-11-04T11:03:29.896Z,99399.50
2022-11-04T11:06:11.998Z,99446.97
2022-11-04T11:08:39.455Z,99452.25
2022-11-04T11:11:07.360Z,99454.47
2022-11-04T11:13:36.303Z,99443.50
2022-11-04T11:16:09.194Z,99388.88
2022-11-04T11:18:38.433Z,99437.66
2022-11-04T11:21:08.899Z,99442.84
2022-11-04T11:23:39.048Z,99444.78
2022-11-04T11:26:07.115Z,99449.88
2022-11-04T11:28:38.008Z,99439.16
2022-11-04T11:31:08.561Z,99366.81
2022-11-04T11:33:37.979Z,99430.97
2022-11-04T11:36:11.878Z,99391.72
2022-11-04T11:38:39.547Z,99355.97
2022-11-04T11:41:24.495Z,99385.13
2022-11-04T11:43:52.886Z,99367.22
2022-11-04T11:46:22.560Z,99417.03
2022-11-04T11:48:52.841Z,99425.72
2022-11-04T11:51:29.035Z,99417.53
2022-11-04T11:54:03.953Z,99409.34
2022-11-04T11:56:52.051Z,99423.38
2022-11-04T12:02:24.238Z,99415.91
2022-11-04T12:10:50.324Z,99428.41
2022-11-04T12:13:24.497Z,99432.88
2022-11-04T12:16:06.320Z,99436.16
2022-11-04T12:18:43.889Z,99435.06
2022-11-04T12:21:15.849Z,99439.41
2022-11-04T12:23:47.253Z,99436.53
2022-11-04T12:26:18.364Z,99450.44
2022-11-04T12:28:53.761Z,99434.44
2022-11-04T12:31:25.356Z,99430.72
2022-11-04T12:33:58.851Z,99405.91
2022-11-04T12:36:33.065Z,99443.00
2022-11-04T12:39:11.746Z,99454.00
2022-11-04T12:42:06.763Z,99455.50
2022-11-04T12:44:34.349Z,99381.50
2022-11-04T12:47:08.772Z,99457.63
2022-11-04T12:50:04.285Z,99455.09
2022-11-04T12:52:59.966Z,99464.16
2022-11-04T12:55:33.149Z,99462.53
2022-11-04T12:58:04.816Z,99465.94
2022-11-04T13:00:32.263Z,99467.84
2022-11-04T13:03:02.124Z,99467.13
2022-11-04T13:05:35.013Z,99467.13
2022-11-04T13:08:13.772Z,99468.06
2022-11-04T13:10:44.300Z,99472.44
2022-11-04T13:13:12.197Z,99480.41
2022-11-04T13:15:44.410Z,99481.25
2022-11-04T13:18:13.520Z,99481.25
2022-11-04T13:20:44.397Z,99484.88
2022-11-04T13:23:17.620Z,99484.88
2022-11-04T13:25:45.727Z,99484.75
2022-11-04T13:28:13.964Z,99488.50
2022-11-04T13:30:45.872Z,99491.88
2022-11-04T13:33:15.583Z,99487.41
2022-11-04T13:35:47.854Z,99492.72
2022-11-04T13:38:18.501Z,99499.63
2022-11-04T13:40:50.364Z,99436.00
2022-11-04T13:43:38.860Z,99492.50
2022-11-04T13:46:08.397Z,99491.06
2022-11-04T13:48:37.821Z,99464.53
2022-11-04T13:51:06.676Z,99477.25
2022-11-04T13:53:46.240Z,99504.16
2022-11-04T13:56:33.217Z,99505.75
2022-11-04T13:59:05.272Z,99510.09
2022-11-04T14:01:33.245Z,99516.16
2022-11-04T14:04:07.008Z,99520.28
2022-11-04T14:06:51.830Z,99517.63
2022-11-04T14:09:55.480Z,99522.09
2022-11-04T14:12:32.477Z,99523.91
2022-11-04T14:15:10.625Z,99524.84
2022-11-04T14:18:02.938Z,99529.22
2022-11-04T14:20:32.834Z,99501.56
2022-11-04T14:23:00.917Z,99533.91
2022-11-04T14:25:32.013Z,99533.69
2022-11-04T14:28:00.261Z,99546.00
2022-11-04T14:30:45.038Z,99514.00
2022-11-04T14:33:39.181Z,99498.31
2022-11-04T14:36:28.924Z,99551.28
2022-11-04T14:38:57.685Z,99501.28
2022-11-04T14:41:34.524Z,99558.16
2022-11-04T14:44:02.998Z,99560.19
2022-11-04T14:46:31.924Z,99552.28
2022-11-04T14:49:01.683Z,99571.16
2022-11-04T14:51:30.215Z,99503.38
2022-11-04T14:54:04.674Z,99562.56
2022-11-04T14:56:33.623Z,99571.59
2022-11-04T14:59:01.846Z,99490.75
2022-11-04T15:01:34.689Z,99570.88
2022-11-04T15:04:12.275Z,99528.41
2022-11-04T15:06:54.543Z,99507.53
2022-11-04T15:09:23.709Z,99572.88
2022-11-04T15:12:10.382Z,99583.50
2022-11-04T15:14:37.969Z,99526.00
2022-11-04T15:17:05.460Z,99589.81
2022-11-04T15:19:33.556Z,99595.13
2022-11-04T15:22:01.075Z,99595.13
2022-11-04T15:24:28.545Z,99606.69
2022-11-04T15:27:01.663Z,99605.84
2022-11-04T15:29:29.100Z,99610.31
2022-11-04T15:31:57.868Z,99609.44
2022-11-04T15:34:26.576Z,99606.91
2022-11-04T15:36:55.269Z,99617.41
2022-11-04T15:39:23.742Z,99610.41
2022-11-04T15:42:09.194Z,99614.88
2022-11-04T15:44:38.519Z,99570.19
2022-11-04T15:47:22.856Z,99628.25
2022-11-04T15:49:50.919Z,99625.72
2022-11-04T15:52:20.564Z,99633.69
2022-11-04T15:54:48.714Z,99628.69
2022-11-04T15:57:16.896Z,99633.91
2022-11-04T15:59:48.066Z,99634.84
2022-11-04T16:02:21.230Z,99614.34
2022-11-04T16:05:03.603Z,99629.00
2022-11-04T16:07:31.753Z,99640.50
2022-11-04T16:09:59.242Z,99643.25
2022-11-04T16:12:28.148Z,99654.75
2022-11-04T16:14:57.269Z,99654.09
2022-11-04T16:17:24.936Z,99662.06
2022-11-04T16:19:53.951Z,99663.84
2022-11-04T16:22:24.917Z,99667.38
2022-11-04T16:24:52.725Z,99609.69
2022-11-04T16:27:21.452Z,99662.16
2022-11-04T16:29:53.364Z,99670.13
2022-11-04T16:32:26.577Z,99677.25
2022-11-04T16:34:57.388Z,99684.50
2022-11-04T16:37:25.740Z,99680.00
2022-11-04T16:39:53.211Z,99687.16
2022-11-04T16:42:20.731Z,99685.53
2022-11-04T16:44:49.396Z,99697.00
2022-11-04T16:47:17.061Z,99702.31
2022-11-04T16:49:45.804Z,99695.31
2022-11-04T16:52:15.280Z,99697.22
2022-11-04T16:54:42.807Z,99699.88
2022-11-04T16:57:13.138Z,99702.44
2022-11-04T16:59:40.968Z,99699.88
2022-11-04T17:02:21.024Z,99699.88
2022-11-04T17:04:49.778Z,99705.41
2022-11-04T17:07:17.224Z,99709.84
2022-11-04T17:09:44.692Z,99718.69
2022-11-04T17:12:12.190Z,99713.38
2022-11-04T17:14:39.737Z,99721.22
2022-11-04T17:17:08.099Z,99652.00
2022-11-04T17:19:35.537Z,99733.75
2022-11-04T17:22:05.350Z,99745.34
2022-11-04T17:24:32.821Z,99751.50
2022-11-04T17:27:00.803Z,99755.09
2022-11-04T17:29:29.792Z,99677.78
2022-11-04T17:31:57.253Z,99758.06
2022-11-04T17:34:25.876Z,99758.16
2022-11-04T17:36:53.535Z,99774.19
2022-11-04T17:39:22.365Z,99716.97
2022-11-04T17:42:07.773Z,99771.53
2022-11-04T17:44:35.238Z,99767.19
2022-11-04T17:47:02.725Z,99760.09
2022-11-04T17:49:30.732Z,99759.13
2022-11-04T17:52:00.544Z,99731.34
2022-11-04T17:54:30.154Z,99764.44
2022-11-04T17:56:57.698Z,99767.19
2022-11-04T17:59:25.196Z,99777.72
2022-11-04T18:01:52.760Z,99777.81
2022-11-04T18:04:21.621Z,99784.91
2022-11-04T18:06:49.401Z,99729.88
2022-11-04T18:09:17.109Z,99790.34
2022-11-04T18:12:03.296Z,99793.09
2022-11-04T18:14:30.790Z,99742.03
2022-11-04T18:16:58.413Z,99789.72
2022-11-04T18:19:27.074Z,99787.97
2022-11-04T18:21:54.537Z,99793.28
2022-11-04T18:24:22.089Z,99797.78
2022-11-04T18:26:50.943Z,99787.66
2022-11-04T18:29:18.468Z,99793.41
2022-11-04T18:31:49.410Z,99802.22
2022-11-04T18:34:19.258Z,99809.31
2022-11-04T18:36:46.845Z,99800.72
2022-11-04T18:39:15.013Z,99746.50
2022-11-04T18:41:42.550Z,99809.41
2022-11-04T18:44:13.834Z,99812.06
2022-11-04T18:46:41.286Z,99816.66
2022-11-04T18:49:08.743Z,99812.28
2022-11-04T18:51:36.280Z,99815.03
2022-11-04T18:54:04.271Z,99815.91
2022-11-04T18:56:31.811Z,99766.50
2022-11-04T18:58:59.226Z,99820.34
2022-11-04T19:01:29.201Z,99775.59
2022-11-04T19:03:56.636Z,99822.25
2022-11-04T19:06:25.066Z,99825.84
2022-11-04T19:08:52.875Z,99825.03
2022-11-04T19:11:21.410Z,99829.28
2022-11-04T19:13:51.067Z,99826.06
2022-11-04T19:16:18.530Z,99842.75
2022-11-04T19:18:49.210Z,99849.66
2022-11-04T19:21:18.564Z,99837.94
2022-11-04T19:23:46.670Z,99860.25
2022-11-04T19:26:15.373Z,99863.97
2022-11-04T19:28:48.332Z,99806.31
2022-11-04T19:31:17.793Z,99869.38
2022-11-04T19:33:46.720Z,99808.97
2022-11-04T19:36:14.758Z,99824.59
2022-11-04T19:38:43.581Z,99821.84
2022-11-04T19:41:34.141Z,99848.91
2022-11-04T19:44:01.021Z,99877.34
2022-11-04T19:46:28.522Z,99886.16
2022-11-04T19:48:58.030Z,99880.88
2022-11-04T19:51:31.594Z,99883.63
2022-11-04T19:53:59.566Z,99843.94
2022-11-04T19:56:27.046Z,99896.78
2022-11-04T19:58:54.531Z,99891.47
2022-11-04T20:01:22.118Z,99895.94
2022-11-04T20:03:50.339Z,99898.59
2022-11-04T20:06:19.204Z,99896.13
2022-11-04T20:08:48.739Z,99898.78
2022-11-04T20:11:16.339Z,99905.88
2022-11-04T20:13:47.074Z,99914.81
2022-11-04T20:16:16.949Z,99901.53
2022-11-04T20:18:44.659Z,99902.50
2022-11-04T20:21:12.314Z,99881.63
2022-11-04T20:23:41.151Z,99854.47
2022-11-04T20:26:10.512Z,99895.38
2022-11-04T20:28:38.401Z,99922.19
2022-11-04T20:31:12.776Z,99923.03
2022-11-04T20:33:40.265Z,99927.50
2022-11-04T20:36:08.395Z,99879.00
2022-11-04T20:38:36.105Z,99928.25
2022-11-04T20:41:06.188Z,99927.34
2022-11-04T20:43:34.395Z,99937.16
2022-11-04T20:46:06.130Z,99937.16
2022-11-04T20:48:34.466Z,99942.75
2022-11-04T20:51:06.299Z,99947.00
2022-11-04T20:53:33.753Z,99948.84
2022-11-04T20:56:01.212Z,99948.84
2022-11-04T20:58:30.792Z,99967.41
2022-11-04T21:01:01.033Z,99957.81
2022-11-04T21:03:28.862Z,99964.94
2022-11-04T21:05:56.434Z,99962.28
2022-11-04T21:08:23.937Z,99919.19
2022-11-04T21:10:51.411Z,99973.00
2022-11-04T21:13:18.866Z,99971.09
2022-11-04T21:15:51.226Z,99990.72
2022-11-04T21:18:18.683Z,99989.94
2022-11-04T21:20:46.371Z,99991.66
2022-11-04T21:23:14.487Z,99948.44
2022-11-04T21:25:42.148Z,99976.41
2022-11-04T21:28:09.840Z,99996.59
2022-11-04T21:30:37.898Z,99997.72
2022-11-04T21:33:06.816Z,100005.69
2022-11-04T21:35:35.013Z,99947.09
2022-11-04T21:38:02.501Z,100011.00
2022-11-04T21:40:30.084Z,100014.38
2022-11-04T21:42:57.585Z,100014.28
2022-11-04T21:45:25.135Z,99965.84
2022-11-04T21:47:52.703Z,99941.22
2022-11-04T21:50:21.497Z,100027.09
2022-11-04T21:52:48.938Z,100026.44
2022-11-04T21:55:16.529Z,100016.88
2022-11-04T21:57:43.982Z,100019.69
2022-11-04T22:00:13.885Z,100027.47
2022-11-04T22:02:43.415Z,100024.81
2022-11-04T22:05:11.359Z,99975.50
2022-11-04T22:08:09.017Z,100026.13
2022-11-04T22:10:36.885Z,100033.78
2022-11-04T22:13:04.474Z,100031.91
2022-11-04T22:15:49.900Z,100030.13
2022-11-04T22:18:17.461Z,100036.34
2022-11-04T22:20:44.914Z,100022.53
2022-11-04T22:23:13.676Z,100025.94
2022-11-04T22:25:44.684Z,100033.16
2022-11-04T22:28:15.668Z,100043.56
2022-11-04T22:30:43.167Z,100038.19
2022-11-04T22:33:10.833Z,100040.84
2022-11-04T22:35:38.475Z,100044.41
2022-11-04T22:38:05.975Z,99987.97
2022-11-04T22:40:34.832Z,100049.16
2022-11-04T22:43:02.319Z,99978.38
2022-11-04T22:45:29.813Z,100057.75
2022-11-04T22:47:57.284Z,100052.63
2022-11-04T22:50:24.755Z,100054.75
2022-11-04T22:52:52.269Z,100053.78
2022-11-04T22:55:19.797Z,100016.22
2022-11-04T22:57:48.616Z,100063.63
2022-11-04T23:00:16.752Z,100065.72
2022-11-04T23:02:44.828Z,100063.97
2022-11-04T23:05:13.458Z,100067.50
2022-11-04T23:07:41.420Z,100065.88
2022-11-04T23:10:27.388Z,100044.44
2022-11-04T23:13:14.017Z,100066.25
2022-11-04T23:15:59.314Z,100043.63
2022-11-04T23:18:45.815Z,100079.59
2022-11-04T23:21:32.250Z,100079.69
2022-11-04T23:24:17.512Z,100020.66
2022-11-04T23:26:46.092Z,100087.28
2022-11-04T23:29:33.034Z,100092.75
2022-11-04T23:34:39.216Z,100099.34
2022-11-04T23:37:15.822Z,100042.41
2022-11-04T23:39:44.125Z,100043.75
2022-11-04T23:42:17.356Z,100100.31
2022-11-04T23:45:08.281Z,100057.94
2022-11-04T23:47:54.122Z,100109.28
2022-11-04T23:50:39.533Z,100048.53
2022-11-04T23:53:24.874Z,100029.97
2022-11-04T23:56:10.130Z,100112.03
2022-11-04T23:58:55.623Z,100109.56
